Alliance, OH

5:57 AM EST on January 27, 2015 (GMT -0500)
Parks Ave | Change Station
CLOSE
Current Station
Personal Weather Station
Location: Alliance, OH
Elevation: 1211 ft
Nearby Weather Stations

Elev 1211 ft 40.88 °N, 81.19 °W | Updated 10 minutes ago

Snow
Snow
16.7 °F
Feels Like 17 °F
N
3.0
Wind Variable Wind from NW

Today
High -- | Low -- °F
--% Chance of Precip.
Yesterday
High -- | Low -- °F
Precip. -- in
7:39 AM 5:35 PM
First Quarter, 53% visible
Pressure 29.95 in
Visibility 3.0 miles
Clouds Overcast 2600 ft
Windchill 17 °F
Dew Point 14 °F
Humidity 89%
Rainfall 0.00 in
Snow Depth Not available.
UV 0 out of 12
Pollen .10 out of 12
Air Quality Not available.
Flu Activity Not available.
METAR KCAK 271051Z 34006KT 3SM -SN OVC026 M07/M11 A2989 RMK AO2 SLP141 P0001 T10721111 $

More Conditions Fewer Conditions

Pressure 29.95 in
Visibility 3.0 miles
Clouds Overcast 2600 ft
Windchill 17 °F
Dew Point 14 °F
Humidity 89%
Rainfall 0.00 in
Snow Depth Not available.
UV 0 out of 12
Pollen .10 out of 12
Air Quality Not available.
Flu Activity Not available.
METAR KCAK 271051Z 34006KT 3SM -SN OVC026 M07/M11 A2989 RMK AO2 SLP141 P0001 T10721111 $

More Conditions Fewer Conditions

10-Day Weather Forecast

Almanac

Astronomy

Jan. 27, 2015 Rise Set
Actual Time
Civil Twilight
Nautical Twilight
Astronomical Twilight
Moon
Length of Visible Light
Length of Day
Tomorrow will be .
, % of the Moon is Illuminated

Today's Extremes

State Highs State Lows

Community

WunderPhotos

Upload Photos

1,790,562 photos uploaded!

WunderBlogs® & News

Nearby

Air Quality

  Air Quality AQ Index Pollutant
Not available.

Snow Depth

Station Depth Elevation

Earthquake Activity

City Distance Mag. Time & Date
Minimum magnitude displayed is 2.5.

Coastal Water Temperatures

Place Temperature

Nearby Weather Stations